Hillhead, South Dakota
Current Conditions -  °F | °C
As of 2:35 AM on Thursday 29 Jan 2015 (Local Time) from KGWR Reporting Station
Overcast Overcast  
Wind Chill: 17°   Ceiling: 1900
Heat Index: 30°   Visibility: 10mi
Dew Point: 28°   Wind: 21mph
Humidity: 93%   Direction: 330°NNW
Pressure: 30.2"   Gusts: 31mph
Location:  45.8363°N, 97.3443°W
Report Text: KGWR 290835Z AUTO 33018G27KT 10SM OVC019 M01/M02 A3020 RMK A01 P000
Loading
Personal Weather Stations






























Interactive Weather Map New forecast layout! Learn more

10-Day Weather Forecast

Advertisements
Track Severe Weather on mobile